Terminal Aerodrome Forecast
Issued by NWS

Home | Current Version | Previous Version | Graphics & Text | Print | Product List | Glossary Off
Versions: 1 2 3 4 5 6 7 8 9 10 11 12 13 14 15 16 17 18

000
FTUS43 KICT 042334
TAFHUT
TAF
KHUT 042334Z 0500/0524 14007KT P6SM SCT050 BKN250
     FM050200 14007KT P6SM SCT080
     FM050900 14008KT P6SM BKN080
     FM051600 18012G22KT P6SM SCT080=

USA.gov is the U.S. government's official web portal to all federal, state and local government web resources and services.